Time;durP1;ratioP1;P1;durP2;ratioP2;P2;SDS_P1;SDS_P2;PMS_P1;PMS_P2;Temp;Humidity;BMP_temperature;BMP_pressure;BME280_temperature;BME280_humidity;BME280_pressure;Samples;Min_cycle;Max_cycle;Signal;HPM_P1;HPM_P2
2022/01/29 00:00:44;;;;;;;;;;;7.80;99.90;;;;;;5092505;28;19916;-58
2022/01/29 00:03:10;;;;;;;;;;;7.80;99.90;;;;;;5091597;28;19908;-58
2022/01/29 00:05:35;;;;;;;;;;;7.80;99.90;;;;;;5092404;28;19960;-58
2022/01/29 00:08:02;;;;;;;;;;;7.80;99.90;;;;;;5092432;28;20263;-58
2022/01/29 00:10:28;;;;;;;;;;;7.80;99.90;;;;;;5091512;28;19915;-58
2022/01/29 00:12:53;;;;;;;;;;;7.80;99.90;;;;;;5092328;28;19911;-58
2022/01/29 00:15:20;;;;;;;;;;;7.90;99.90;;;;;;5091701;28;19915;-58
2022/01/29 00:17:45;;;;;;;;;;;7.90;99.90;;;;;;5091401;28;20000;-58
2022/01/29 00:20:11;;;;;;;;;;;7.90;99.90;;;;;;5092267;28;19919;-58
2022/01/29 00:22:37;;;;;;;;;;;7.80;99.90;;;;;;5091260;28;19908;-58
2022/01/29 00:25:02;;;;;;;;;;;7.80;99.90;;;;;;5091221;28;19912;-58
2022/01/29 00:27:33;;;;;;;;;;;7.80;99.90;;;;;;5091324;28;19928;-58
2022/01/29 00:30:01;;;;;;;;;;;7.80;99.90;;;;;;5092210;28;19914;-58
2022/01/29 00:32:27;;;;;;;;;;;7.80;99.90;;;;;;5091557;28;19955;-58
2022/01/29 00:34:53;;;;;;;;;;;7.80;99.90;;;;;;5091956;28;19956;-58
2022/01/29 00:37:19;;;;;;;;;;;7.80;99.90;;;;;;5092175;28;19916;-59
2022/01/29 00:39:44;;;;;;;;;;;7.80;99.90;;;;;;5091437;28;20025;-58
2022/01/29 00:42:10;;;;;;;;;;;7.70;99.90;;;;;;5092046;28;19904;-58
2022/01/29 00:44:35;;;;;;;;;;;7.70;99.90;;;;;;5090988;28;19923;-58
2022/01/29 00:47:01;;;;;;;;;;;7.70;99.90;;;;;;5091940;28;19965;-58
2022/01/29 00:49:26;;;;;;;;;;;7.70;99.90;;;;;;5091608;28;19937;-58
2022/01/29 00:51:52;;;;;;;;;;;7.70;99.90;;;;;;5091404;28;19904;-58
2022/01/29 00:54:17;;;;;;;;;;;7.60;99.90;;;;;;5091981;28;20359;-58
2022/01/29 00:56:43;;;;;;;;;;;7.60;99.90;;;;;;5095497;28;20311;-59
2022/01/29 00:59:08;;;;;;;;;;;7.60;99.90;;;;;;5094632;28;19999;-58
2022/01/29 01:01:34;;;;;;;;;;;7.60;99.90;;;;;;5095447;28;20411;-58
2022/01/29 01:04:00;;;;;;;;;;;7.50;99.90;;;;;;5095461;28;20492;-58
2022/01/29 01:06:25;;;;;;;;;;;7.50;99.90;;;;;;5094707;28;19995;-58
2022/01/29 01:08:51;;;;;;;;;;;7.50;99.90;;;;;;5095286;28;19915;-58
2022/01/29 01:11:16;;;;;;;;;;;7.50;99.90;;;;;;5094773;28;19996;-58
2022/01/29 01:13:42;;;;;;;;;;;7.50;99.90;;;;;;5094350;28;19912;-58
2022/01/29 01:16:07;;;;;;;;;;;7.40;99.90;;;;;;5095306;28;19931;-59
2022/01/29 01:18:32;;;;;;;;;;;7.50;99.90;;;;;;5095218;28;19914;-59
2022/01/29 01:20:58;;;;;;;;;;;7.50;99.90;;;;;;5094288;28;19939;-59
2022/01/29 01:23:23;;;;;;;;;;;7.50;99.90;;;;;;5094865;28;19912;-60
2022/01/29 01:25:49;;;;;;;;;;;7.50;99.90;;;;;;5095258;28;19908;-60
2022/01/29 01:28:14;;;;;;;;;;;7.50;99.90;;;;;;5094022;28;19916;-60
2022/01/29 01:30:40;;;;;;;;;;;7.40;99.90;;;;;;5094576;28;19908;-60
2022/01/29 01:33:06;;;;;;;;;;;7.40;99.90;;;;;;5095261;28;20339;-60
2022/01/29 01:35:37;;;;;;;;;;;7.40;99.90;;;;;;5093945;28;19919;-61
2022/01/29 01:38:17;;;;;;;;;;;7.40;99.90;;;;;;5095112;28;19931;-60
2022/01/29 01:40:47;;;;;;;;;;;7.40;99.90;;;;;;5094842;28;19915;-61
2022/01/29 01:43:12;;;;;;;;;;;7.40;99.90;;;;;;5093918;28;19985;-60
2022/01/29 01:45:38;;;;;;;;;;;7.50;99.90;;;;;;5095023;28;20346;-60
2022/01/29 01:48:06;;;;;;;;;;;7.50;99.90;;;;;;5094073;28;19904;-61
2022/01/29 01:50:32;;;;;;;;;;;7.50;99.90;;;;;;5094852;28;19912;-60
2022/01/29 01:52:57;;;;;;;;;;;7.40;99.90;;;;;;5094112;28;19912;-62
2022/01/29 01:55:23;;;;;;;;;;;7.50;99.90;;;;;;5093997;28;19911;-60
2022/01/29 01:57:48;;;;;;;;;;;7.50;99.90;;;;;;5094479;28;20293;-60
2022/01/29 02:00:14;;;;;;;;;;;7.50;99.90;;;;;;5094165;28;19908;-60
2022/01/29 02:02:40;;;;;;;;;;;7.50;99.90;;;;;;5093689;28;19908;-61
2022/01/29 02:05:06;;;;;;;;;;;7.50;99.90;;;;;;5094480;28;20267;-60
2022/01/29 02:07:31;;;;;;;;;;;7.50;99.90;;;;;;5093633;28;19916;-61
2022/01/29 02:09:57;;;;;;;;;;;7.50;99.90;;;;;;5093541;28;19919;-60
2022/01/29 02:12:26;;;;;;;;;;;7.60;99.90;;;;;;5094063;28;19908;-59
2022/01/29 02:14:52;;;;;;;;;;;7.50;99.90;;;;;;5094168;28;19908;-60
2022/01/29 02:17:18;;;;;;;;;;;7.50;99.90;;;;;;5093389;28;20270;-60
2022/01/29 02:19:43;;;;;;;;;;;7.60;99.90;;;;;;5094201;28;19908;-60
2022/01/29 02:22:09;;;;;;;;;;;7.60;99.90;;;;;;5093644;28;21989;-60
2022/01/29 02:24:36;;;;;;;;;;;7.60;99.90;;;;;;5092701;28;19974;-61
2022/01/29 02:27:01;;;;;;;;;;;7.60;99.90;;;;;;5093977;28;20540;-59
2022/01/29 02:29:27;;;;;;;;;;;7.60;99.90;;;;;;5093984;28;20007;-60
2022/01/29 02:31:53;;;;;;;;;;;7.60;99.90;;;;;;5092739;28;20290;-59
2022/01/29 02:34:19;;;;;;;;;;;7.60;99.90;;;;;;5093469;28;20355;-60
2022/01/29 02:36:45;;;;;;;;;;;7.60;99.90;;;;;;5094172;28;19911;-60
2022/01/29 02:39:11;;;;;;;;;;;7.60;99.90;;;;;;5092982;28;20484;-60
2022/01/29 02:41:40;;;;;;;;;;;7.60;99.90;;;;;;5093974;28;19999;-59
2022/01/29 02:44:06;;;;;;;;;;;7.70;99.90;;;;;;5093496;28;19916;-60
2022/01/29 02:49:26;;;;;;;;;;;7.70;99.90;;;;;;5068323;28;20426;-60
2022/01/29 02:51:53;;;;;;;;;;;7.70;99.90;;;;;;5092447;28;20010;-61
2022/01/29 02:54:18;;;;;;;;;;;7.70;99.90;;;;;;5093062;28;20589;-60
2022/01/29 02:56:44;;;;;;;;;;;7.80;99.90;;;;;;5093757;28;19911;-60
2022/01/29 02:59:09;;;;;;;;;;;7.70;99.90;;;;;;5092624;28;19908;-60
2022/01/29 03:01:35;;;;;;;;;;;7.80;99.90;;;;;;5093357;28;19908;-59
2022/01/29 03:04:01;;;;;;;;;;;7.80;99.90;;;;;;5093027;28;19923;-59
2022/01/29 03:06:26;;;;;;;;;;;7.80;99.90;;;;;;5092645;28;19904;-60
2022/01/29 03:08:52;;;;;;;;;;;7.80;99.90;;;;;;5093339;28;19908;-59
2022/01/29 03:11:19;;;;;;;;;;;7.90;99.90;;;;;;5093350;28;19911;-60
2022/01/29 03:13:46;;;;;;;;;;;7.90;99.90;;;;;;5092179;28;20420;-59
2022/01/29 03:16:11;;;;;;;;;;;7.90;99.90;;;;;;5093145;28;20007;-59
2022/01/29 03:18:36;;;;;;;;;;;7.90;99.90;;;;;;5093028;28;19954;-59
2022/01/29 03:21:02;;;;;;;;;;;8.00;99.90;;;;;;5092051;28;19916;-60
2022/01/29 03:23:27;;;;;;;;;;;8.00;99.90;;;;;;5092713;28;20359;-59
2022/01/29 03:25:53;;;;;;;;;;;8.00;99.90;;;;;;5092882;28;20357;-59
2022/01/29 03:28:18;;;;;;;;;;;8.00;99.90;;;;;;5092062;28;19938;-60
2022/01/29 03:30:44;;;;;;;;;;;8.00;99.90;;;;;;5093146;28;19904;-60
2022/01/29 03:33:10;;;;;;;;;;;8.00;99.90;;;;;;5092710;28;19908;-59
2022/01/29 03:35:35;;;;;;;;;;;8.00;99.90;;;;;;5092134;28;20377;-59
2022/01/29 03:38:01;;;;;;;;;;;8.10;99.90;;;;;;5092628;28;20354;-59
2022/01/29 03:40:27;;;;;;;;;;;8.10;99.90;;;;;;5092023;28;19912;-59
2022/01/29 03:43:01;;;;;;;;;;;8.10;99.90;;;;;;5092758;28;19904;-60
2022/01/29 03:45:26;;;;;;;;;;;8.10;99.90;;;;;;5092847;28;19914;-60
2022/01/29 03:47:52;;;;;;;;;;;8.10;99.90;;;;;;5092111;28;19904;-60
2022/01/29 03:50:17;;;;;;;;;;;8.10;99.90;;;;;;5092171;28;19915;-59
2022/01/29 03:52:43;;;;;;;;;;;8.20;99.90;;;;;;5092461;28;19908;-59
2022/01/29 03:55:08;;;;;;;;;;;8.20;99.90;;;;;;5091908;28;19953;-60
2022/01/29 03:57:33;;;;;;;;;;;8.30;99.90;;;;;;5092732;28;20335;-59
2022/01/29 04:00:01;;;;;;;;;;;8.30;99.90;;;;;;5092485;28;19915;-59
2022/01/29 04:02:26;;;;;;;;;;;8.30;99.90;;;;;;5091584;28;19969;-59
2022/01/29 04:04:52;;;;;;;;;;;8.30;99.90;;;;;;5092273;28;20329;-59
2022/01/29 04:07:17;;;;;;;;;;;8.30;99.90;;;;;;5092206;28;19911;-59
2022/01/29 04:09:48;;;;;;;;;;;8.40;99.90;;;;;;5091521;28;20161;-59
2022/01/29 04:12:14;;;;;;;;;;;8.40;99.90;;;;;;5092412;28;19904;-59
2022/01/29 04:14:39;;;;;;;;;;;8.40;99.90;;;;;;5092406;28;19915;-59
2022/01/29 04:17:05;;;;;;;;;;;8.40;99.90;;;;;;5091646;28;19930;-59
2022/01/29 04:19:31;;;;;;;;;;;8.50;99.90;;;;;;5092339;28;20263;-59
2022/01/29 04:21:57;;;;;;;;;;;8.50;99.90;;;;;;5091484;28;19919;-59
2022/01/29 04:24:22;;;;;;;;;;;8.50;99.90;;;;;;5091167;28;19916;-59
2022/01/29 04:26:47;;;;;;;;;;;8.50;99.90;;;;;;5092199;28;19922;-59
2022/01/29 04:29:13;;;;;;;;;;;8.50;99.90;;;;;;5092186;28;19973;-59
2022/01/29 04:32:00;;;;;;;;;;;8.60;99.90;;;;;;5095218;28;20309;-59
2022/01/29 04:34:24;;;;;;;;;;;8.60;99.90;;;;;;5095681;28;19908;-59
2022/01/29 04:36:50;;;;;;;;;;;8.60;99.90;;;;;;5095163;28;19914;-59
2022/01/29 04:39:15;;;;;;;;;;;8.60;99.90;;;;;;5095854;28;19908;-59
2022/01/29 04:41:40;;;;;;;;;;;8.60;99.90;;;;;;5096067;28;19908;-59
2022/01/29 04:44:06;;;;;;;;;;;8.60;99.90;;;;;;5094916;28;19916;-59
2022/01/29 04:46:31;;;;;;;;;;;8.60;99.90;;;;;;5096193;28;19957;-59
2022/01/29 04:48:57;;;;;;;;;;;8.60;99.90;;;;;;5095972;28;19911;-59
2022/01/29 04:51:22;;;;;;;;;;;8.60;99.90;;;;;;5094736;28;19961;-58
2022/01/29 04:53:48;;;;;;;;;;;8.70;99.90;;;;;;5095796;28;20282;-58
2022/01/29 04:56:13;;;;;;;;;;;8.70;99.90;;;;;;5095818;28;20007;-59
2022/01/29 04:58:39;;;;;;;;;;;8.70;99.90;;;;;;5094778;28;19933;-59
2022/01/29 05:01:05;;;;;;;;;;;8.70;99.90;;;;;;5095611;28;19999;-59
2022/01/29 05:03:30;;;;;;;;;;;8.70;99.90;;;;;;5095579;28;19916;-59
2022/01/29 05:05:56;;;;;;;;;;;8.70;99.90;;;;;;5094826;28;19908;-59
2022/01/29 05:08:22;;;;;;;;;;;8.70;99.90;;;;;;5095259;28;19915;-59
2022/01/29 05:10:47;;;;;;;;;;;8.70;99.90;;;;;;5095302;28;20394;-58
2022/01/29 05:13:17;;;;;;;;;;;8.70;99.90;;;;;;5094518;28;19904;-59
2022/01/29 05:26:51;;;;;;;;;;;8.80;99.90;;;;;;5094556;28;19922;-59
2022/01/29 05:29:17;;;;;;;;;;;8.80;99.90;;;;;;5095246;28;19912;-58
2022/01/29 05:31:42;;;;;;;;;;;8.90;99.90;;;;;;5095273;28;20001;-59
2022/01/29 05:34:08;;;;;;;;;;;8.90;99.90;;;;;;5094188;28;19911;-59
2022/01/29 05:36:34;;;;;;;;;;;8.90;99.90;;;;;;5095061;28;19908;-59
2022/01/29 05:38:59;;;;;;;;;;;8.90;99.90;;;;;;5094989;28;19912;-59
2022/01/29 05:41:25;;;;;;;;;;;8.90;99.90;;;;;;5092403;28;19908;-59
2022/01/29 05:43:51;;;;;;;;;;;8.90;99.90;;;;;;5094329;28;20003;-59
2022/01/29 05:46:17;;;;;;;;;;;8.90;99.90;;;;;;5094629;28;19915;-59
2022/01/29 05:48:42;;;;;;;;;;;8.90;99.90;;;;;;5094045;28;19915;-59
2022/01/29 05:51:08;;;;;;;;;;;8.90;99.90;;;;;;5094963;28;19908;-59
2022/01/29 05:53:34;;;;;;;;;;;8.90;99.90;;;;;;5094384;28;19910;-59
2022/01/29 05:55:59;;;;;;;;;;;9.00;99.90;;;;;;5094162;28;19915;-58
2022/01/29 05:58:25;;;;;;;;;;;9.00;99.90;;;;;;5094514;28;20016;-58
2022/01/29 06:00:51;;;;;;;;;;;9.00;99.90;;;;;;5094276;28;19950;-59
2022/01/29 06:03:16;;;;;;;;;;;9.00;99.90;;;;;;5093650;28;20026;-59
2022/01/29 06:05:42;;;;;;;;;;;9.00;99.90;;;;;;5094517;28;19986;-58
2022/01/29 06:08:07;;;;;;;;;;;9.00;99.90;;;;;;5093677;28;19931;-59
2022/01/29 06:10:33;;;;;;;;;;;9.00;99.90;;;;;;5093858;28;20378;-59
2022/01/29 06:12:59;;;;;;;;;;;9.00;99.90;;;;;;5093783;28;20244;-58
2022/01/29 06:15:25;;;;;;;;;;;9.00;99.90;;;;;;5093089;28;20365;-59
2022/01/29 06:17:50;;;;;;;;;;;9.00;99.90;;;;;;5094397;28;19919;-59
2022/01/29 06:20:16;;;;;;;;;;;9.10;99.90;;;;;;5093909;28;20248;-59
2022/01/29 06:22:42;;;;;;;;;;;9.10;99.90;;;;;;5092486;28;19954;-59
2022/01/29 06:25:07;;;;;;;;;;;9.10;99.90;;;;;;5093987;28;19916;-59
2022/01/29 06:27:33;;;;;;;;;;;9.10;99.90;;;;;;5093122;28;19970;-59
2022/01/29 06:29:58;;;;;;;;;;;9.10;99.90;;;;;;5092918;28;20350;-58
2022/01/29 06:32:24;;;;;;;;;;;9.10;99.90;;;;;;5093707;28;20275;-59
2022/01/29 06:34:50;;;;;;;;;;;9.10;99.90;;;;;;5093848;28;19904;-58
2022/01/29 06:37:15;;;;;;;;;;;9.20;99.90;;;;;;5093093;28;20304;-58
2022/01/29 06:39:41;;;;;;;;;;;9.20;99.90;;;;;;5093814;28;20075;-58
2022/01/29 06:42:06;;;;;;;;;;;9.20;99.90;;;;;;5093360;28;19961;-58
2022/01/29 06:44:32;;;;;;;;;;;9.20;99.90;;;;;;5092596;28;19915;-59
2022/01/29 06:46:57;;;;;;;;;;;9.20;99.90;;;;;;5093635;28;19915;-58
2022/01/29 06:49:22;;;;;;;;;;;9.30;99.90;;;;;;5093525;28;19914;-58
2022/01/29 06:51:48;;;;;;;;;;;9.30;99.90;;;;;;5092611;28;19992;-58
2022/01/29 06:54:13;;;;;;;;;;;9.30;99.90;;;;;;5093257;28;20398;-58
2022/01/29 06:56:39;;;;;;;;;;;9.30;99.90;;;;;;5093507;28;19939;-58
2022/01/29 06:59:04;;;;;;;;;;;9.30;99.90;;;;;;5092655;28;20408;-58
2022/01/29 07:01:30;;;;;;;;;;;9.40;99.90;;;;;;5093300;28;19998;-59
2022/01/29 07:03:55;;;;;;;;;;;9.40;99.90;;;;;;5093059;28;19919;-59
2022/01/29 07:06:21;;;;;;;;;;;9.30;99.90;;;;;;5092676;28;19904;-58
2022/01/29 07:08:46;;;;;;;;;;;9.40;99.90;;;;;;5093040;28;19904;-58
2022/01/29 07:11:12;;;;;;;;;;;9.40;99.90;;;;;;5093059;28;19911;-59
2022/01/29 07:13:37;;;;;;;;;;;9.40;99.90;;;;;;5092186;28;19908;-59
2022/01/29 07:16:03;;;;;;;;;;;9.40;99.90;;;;;;5093216;28;19908;-59
2022/01/29 07:18:28;;;;;;;;;;;9.50;99.90;;;;;;5092498;28;20373;-58
2022/01/29 07:20:54;;;;;;;;;;;9.50;99.90;;;;;;5092725;28;19918;-58
2022/01/29 07:23:19;;;;;;;;;;;9.50;99.90;;;;;;5086427;28;19908;-58
2022/01/29 07:25:45;;;;;;;;;;;9.40;99.90;;;;;;5072298;28;20056;-59
2022/01/29 07:28:10;;;;;;;;;;;9.50;99.90;;;;;;5085469;28;19916;-58
2022/01/29 07:30:36;;;;;;;;;;;9.50;99.90;;;;;;5093341;28;19933;-59
2022/01/29 07:33:01;;;;;;;;;;;9.50;99.90;;;;;;5092369;28;19904;-58
2022/01/29 07:35:27;;;;;;;;;;;9.50;99.90;;;;;;5092875;28;19904;-58
2022/01/29 07:37:52;;;;;;;;;;;9.50;99.90;;;;;;5092376;28;19908;-58
2022/01/29 07:40:17;;;;;;;;;;;9.50;99.90;;;;;;5091844;28;19994;-58
2022/01/29 07:42:43;;;;;;;;;;;9.50;99.90;;;;;;5092427;28;20282;-59
2022/01/29 07:45:09;;;;;;;;;;;9.50;99.90;;;;;;5092515;28;19916;-58
2022/01/29 07:47:36;;;;;;;;;;;9.40;99.90;;;;;;5091752;28;19965;-58
2022/01/29 07:50:02;;;;;;;;;;;9.40;99.90;;;;;;5092369;28;20000;-59
2022/01/29 07:52:27;;;;;;;;;;;9.40;99.90;;;;;;5092349;28;20111;-58
2022/01/29 07:54:53;;;;;;;;;;;9.40;99.90;;;;;;5090934;28;20351;-59
2022/01/29 07:57:18;;;;;;;;;;;9.40;99.90;;;;;;5091894;28;19914;-59
2022/01/29 07:59:44;;;;;;;;;;;9.30;99.90;;;;;;5078029;28;19911;-59
2022/01/29 08:02:09;;;;;;;;;;;9.40;99.90;;;;;;5071602;28;19947;-59
2022/01/29 08:04:34;;;;;;;;;;;9.30;99.90;;;;;;5072515;28;19912;-59
2022/01/29 08:07:00;;;;;;;;;;;9.30;99.90;;;;;;5079516;28;19999;-59
2022/01/29 08:09:25;;;;;;;;;;;9.30;99.90;;;;;;5088657;28;19943;-59
2022/01/29 08:11:51;;;;;;;;;;;9.30;99.90;;;;;;5092475;28;19915;-59
2022/01/29 08:14:16;;;;;;;;;;;9.30;99.90;;;;;;5095538;28;19915;-59
2022/01/29 08:16:42;;;;;;;;;;;9.30;99.90;;;;;;5094784;28;19904;-59
2022/01/29 08:19:07;;;;;;;;;;;9.40;99.90;;;;;;5096139;28;19912;-59
2022/01/29 08:21:33;;;;;;;;;;;9.40;99.90;;;;;;5095264;28;19904;-59
2022/01/29 08:23:58;;;;;;;;;;;9.40;99.90;;;;;;5095221;28;19918;-59
2022/01/29 08:26:24;;;;;;;;;;;9.50;99.90;;;;;;5095366;28;19911;-59
2022/01/29 08:28:49;;;;;;;;;;;9.50;99.90;;;;;;5095233;28;19904;-59
2022/01/29 08:31:14;;;;;;;;;;;9.50;99.90;;;;;;5095278;28;19904;-58
2022/01/29 08:33:40;;;;;;;;;;;9.50;99.90;;;;;;5095185;28;19991;-59
2022/01/29 08:36:07;;;;;;;;;;;9.50;99.90;;;;;;5094886;28;19956;-59
2022/01/29 08:38:33;;;;;;;;;;;9.60;99.90;;;;;;5095353;28;19936;-59
2022/01/29 08:40:58;;;;;;;;;;;9.60;99.90;;;;;;5095197;28;20052;-59
2022/01/29 08:43:25;;;;;;;;;;;9.60;99.90;;;;;;5082050;28;19908;-59
2022/01/29 08:45:50;;;;;;;;;;;9.60;99.90;;;;;;5075196;28;19905;-59
2022/01/29 08:48:16;;;;;;;;;;;9.60;99.90;;;;;;5094135;28;19904;-59
2022/01/29 08:50:42;;;;;;;;;;;9.70;99.90;;;;;;5094906;28;19911;-58
2022/01/29 08:53:07;;;;;;;;;;;9.70;99.90;;;;;;5095081;28;19908;-59
2022/01/29 08:55:36;;;;;;;;;;;9.70;99.90;;;;;;5093935;28;19961;-59
2022/01/29 08:58:06;;;;;;;;;;;9.80;99.90;;;;;;5094549;28;19946;-59
2022/01/29 09:00:31;;;;;;;;;;;9.80;99.90;;;;;;5094847;28;20336;-59
2022/01/29 09:02:57;;;;;;;;;;;9.90;99.90;;;;;;5076007;28;19929;-58
2022/01/29 09:05:22;;;;;;;;;;;9.90;99.90;;;;;;5074193;28;19955;-59
2022/01/29 09:07:48;;;;;;;;;;;9.90;99.90;;;;;;5072335;28;19912;-59
2022/01/29 09:10:13;;;;;;;;;;;10.00;99.90;;;;;;5091154;28;19911;-59
2022/01/29 09:12:39;;;;;;;;;;;10.00;99.90;;;;;;5073762;28;19904;-59
2022/01/29 09:15:04;;;;;;;;;;;10.00;99.90;;;;;;5082820;28;20108;-59
2022/01/29 09:17:30;;;;;;;;;;;10.00;99.90;;;;;;5094362;28;19943;-58
2022/01/29 09:19:55;;;;;;;;;;;10.00;99.90;;;;;;5094282;28;19911;-59
2022/01/29 09:22:21;;;;;;;;;;;10.00;99.90;;;;;;5094832;28;19904;-59
2022/01/29 09:24:46;;;;;;;;;;;10.00;99.90;;;;;;5094828;28;19912;-58
2022/01/29 09:27:12;;;;;;;;;;;10.00;99.90;;;;;;5085883;28;19923;-59
2022/01/29 09:29:37;;;;;;;;;;;10.00;99.90;;;;;;5074222;28;20002;-59
2022/01/29 09:32:03;;;;;;;;;;;10.00;99.90;;;;;;5074068;28;19912;-58
2022/01/29 09:34:28;;;;;;;;;;;10.10;99.90;;;;;;5073891;28;19912;-58
2022/01/29 09:36:54;;;;;;;;;;;10.10;99.90;;;;;;5074306;28;19911;-59
2022/01/29 09:39:19;;;;;;;;;;;10.10;99.90;;;;;;5073162;28;19958;-58
2022/01/29 09:41:45;;;;;;;;;;;10.20;99.90;;;;;;5078913;28;19907;-58
2022/01/29 09:44:11;;;;;;;;;;;10.20;99.90;;;;;;5094275;28;19912;-59
2022/01/29 09:46:37;;;;;;;;;;;10.30;99.90;;;;;;5093573;28;20014;-59
2022/01/29 09:49:03;;;;;;;;;;;10.30;99.90;;;;;;5094557;28;19947;-59
2022/01/29 09:51:30;;;;;;;;;;;10.30;99.90;;;;;;5093533;28;19942;-59
2022/01/29 09:53:56;;;;;;;;;;;10.40;99.90;;;;;;5093685;28;20092;-58
2022/01/29 09:56:21;;;;;;;;;;;10.40;99.90;;;;;;5093949;28;20136;-58
2022/01/29 09:58:46;;;;;;;;;;;10.40;99.90;;;;;;5094248;28;20255;-59
2022/01/29 10:01:12;;;;;;;;;;;10.40;99.90;;;;;;5092767;28;19914;-58
2022/01/29 10:03:37;;;;;;;;;;;10.40;99.90;;;;;;5083111;28;19956;-58
2022/01/29 10:06:03;;;;;;;;;;;10.40;99.90;;;;;;5073874;28;19905;-58
2022/01/29 10:08:30;;;;;;;;;;;10.40;99.90;;;;;;5090154;28;19929;-58
2022/01/29 10:10:56;;;;;;;;;;;10.50;99.90;;;;;;5094143;28;19904;-59
2022/01/29 10:13:36;;;;;;;;;;;10.50;99.90;;;;;;5093447;28;19904;-58
2022/01/29 10:16:04;;;;;;;;;;;10.50;99.90;;;;;;5093336;28;20405;-59
2022/01/29 10:18:30;;;;;;;;;;;10.50;99.90;;;;;;5093465;28;19986;-59
2022/01/29 10:21:07;;;;;;;;;;;10.50;99.90;;;;;;5074872;28;20341;-59
2022/01/29 10:23:32;;;;;;;;;;;10.50;99.90;;;;;;5088967;28;20290;-59
2022/01/29 10:25:58;;;;;;;;;;;10.50;99.90;;;;;;5093526;28;20358;-59
2022/01/29 10:28:23;;;;;;;;;;;10.50;99.90;;;;;;5091132;28;19916;-59
2022/01/29 10:30:49;;;;;;;;;;;10.50;99.90;;;;;;5093406;28;20385;-59
2022/01/29 10:33:28;;;;;;;;;;;10.50;99.90;;;;;;5093243;28;19904;-59
2022/01/29 10:35:53;;;;;;;;;;;10.60;99.90;;;;;;5092470;28;20290;-59
2022/01/29 10:38:23;;;;;;;;;;;10.50;99.90;;;;;;5093010;28;19904;-59
2022/01/29 10:41:08;;;;;;;;;;;10.50;99.90;;;;;;5093543;28;19912;-59
2022/01/29 10:43:34;;;;;;;;;;;10.60;99.90;;;;;;5092135;28;19916;-58
2022/01/29 10:45:59;;;;;;;;;;;10.60;99.90;;;;;;5093304;28;19999;-58
2022/01/29 10:48:40;;;;;;;;;;;10.60;99.90;;;;;;5093297;28;19950;-59
2022/01/29 10:51:09;;;;;;;;;;;10.60;99.90;;;;;;5091893;28;19908;-59
2022/01/29 10:53:35;;;;;;;;;;;10.70;99.90;;;;;;5091753;28;19908;-58
2022/01/29 10:56:01;;;;;;;;;;;10.70;99.90;;;;;;5078659;28;20370;-59
2022/01/29 10:58:26;;;;;;;;;;;10.70;99.90;;;;;;5072138;28;20363;-58
2022/01/29 11:01:11;;;;;;;;;;;10.70;99.90;;;;;;5092764;28;20320;-58
2022/01/29 11:03:36;;;;;;;;;;;10.80;99.90;;;;;;5091625;28;19916;-58
2022/01/29 11:06:02;;;;;;;;;;;10.80;99.90;;;;;;5093042;28;20342;-58
2022/01/29 11:08:28;;;;;;;;;;;10.80;99.90;;;;;;5092522;28;20004;-58
2022/01/29 11:10:54;;;;;;;;;;;10.80;99.90;;;;;;5091843;28;20037;-58
2022/01/29 11:13:19;;;;;;;;;;;10.90;99.90;;;;;;5092215;28;20377;-59
2022/01/29 11:15:45;;;;;;;;;;;10.90;99.90;;;;;;5092326;28;20350;-59
2022/01/29 11:18:11;;;;;;;;;;;10.90;99.90;;;;;;5091349;28;19908;-59
2022/01/29 11:20:36;;;;;;;;;;;10.90;99.90;;;;;;5092199;28;19915;-59
2022/01/29 11:23:02;;;;;;;;;;;11.00;99.90;;;;;;5092660;28;19973;-58
2022/01/29 11:25:32;;;;;;;;;;;11.00;99.90;;;;;;5091515;28;20425;-59
2022/01/29 11:28:12;;;;;;;;;;;11.00;99.90;;;;;;5092223;28;19922;-58
2022/01/29 11:30:37;;;;;;;;;;;11.00;99.90;;;;;;5092066;28;19919;-58
2022/01/29 11:33:02;;;;;;;;;;;10.90;99.90;;;;;;5091490;28;19905;-58
2022/01/29 11:35:29;;;;;;;;;;;10.90;99.90;;;;;;5091790;28;19915;-57
2022/01/29 11:38:04;;;;;;;;;;;10.90;99.90;;;;;;5091966;28;19931;-58
2022/01/29 11:40:30;;;;;;;;;;;10.90;99.90;;;;;;5091199;28;19957;-58
2022/01/29 11:43:01;;;;;;;;;;;10.90;99.90;;;;;;5092205;28;19903;-58
2022/01/29 11:45:43;;;;;;;;;;;10.90;99.90;;;;;;5091920;28;19919;-59
2022/01/29 11:48:34;;;;;;;;;;;10.90;99.90;;;;;;5092056;28;20366;-59
2022/01/29 11:50:59;;;;;;;;;;;10.90;99.90;;;;;;5080655;28;19937;-58
2022/01/29 11:53:25;;;;;;;;;;;10.90;99.90;;;;;;5090942;28;20256;-58
2022/01/29 11:55:52;;;;;;;;;;;10.90;99.90;;;;;;5092288;28;20343;-58
2022/01/29 11:58:27;;;;;;;;;;;10.90;99.90;;;;;;5091218;28;19953;-58
2022/01/29 12:00:54;;;;;;;;;;;10.90;99.90;;;;;;5071151;28;19987;-58
2022/01/29 12:06:18;;;;;;;;;;;10.90;99.90;;;;;;5091457;28;19914;-58
2022/01/29 12:11:32;;;;;;;;;;;10.90;99.90;;;;;;5089897;28;20354;-58
2022/01/29 12:14:12;;;;;;;;;;;10.90;99.90;;;;;;5070919;28;20275;-59
2022/01/29 12:16:57;;;;;;;;;;;11.00;99.90;;;;;;5071494;28;19915;-59
2022/01/29 12:19:42;;;;;;;;;;;11.00;99.90;;;;;;5071246;28;19966;-58
2022/01/29 12:22:15;;;;;;;;;;;11.10;99.90;;;;;;5070724;28;19911;-58
2022/01/29 12:24:46;;;;;;;;;;;11.10;99.90;;;;;;5081035;28;20366;-58
2022/01/29 12:27:12;;;;;;;;;;;11.10;99.90;;;;;;5091643;28;19923;-58
2022/01/29 12:29:37;;;;;;;;;;;11.10;99.90;;;;;;5090836;28;19904;-58
2022/01/29 12:32:03;;;;;;;;;;;11.10;99.90;;;;;;5091125;28;19915;-58
2022/01/29 12:34:29;;;;;;;;;;;11.10;99.90;;;;;;5088810;28;19996;-59
2022/01/29 12:37:14;;;;;;;;;;;11.10;99.90;;;;;;5082156;28;19915;-59
2022/01/29 12:39:40;;;;;;;;;;;11.10;99.90;;;;;;5071491;28;19998;-59
2022/01/29 12:42:17;;;;;;;;;;;11.20;99.90;;;;;;5090173;28;20385;-58
2022/01/29 12:44:52;;;;;;;;;;;11.20;99.90;;;;;;5091592;28;19912;-59
2022/01/29 12:47:28;;;;;;;;;;;11.30;99.90;;;;;;5090912;28;20355;-58
2022/01/29 12:49:54;;;;;;;;;;;11.40;99.90;;;;;;5089681;28;19912;-59
2022/01/29 12:52:20;;;;;;;;;;;11.30;99.90;;;;;;5085409;28;19962;-58
2022/01/29 12:54:52;;;;;;;;;;;11.30;99.90;;;;;;5075072;28;19948;-58
2022/01/29 12:57:18;;;;;;;;;;;11.30;99.90;;;;;;5088708;28;19930;-58
2022/01/29 12:59:43;;;;;;;;;;;11.30;99.90;;;;;;5095827;28;20342;-58
2022/01/29 13:02:08;;;;;;;;;;;11.30;99.90;;;;;;5095206;28;19961;-58
2022/01/29 13:04:34;;;;;;;;;;;11.30;99.90;;;;;;5093901;28;19922;-58
2022/01/29 13:07:04;;;;;;;;;;;11.30;99.90;;;;;;5094484;28;19912;-58
2022/01/29 13:09:30;;;;;;;;;;;11.30;99.90;;;;;;5094125;28;19955;-58
2022/01/29 13:11:59;;;;;;;;;;;11.30;99.90;;;;;;5094194;28;20366;-58
2022/01/29 13:14:25;;;;;;;;;;;11.30;99.90;;;;;;5094236;28;19961;-58
2022/01/29 13:16:52;;;;;;;;;;;11.30;99.90;;;;;;5091872;28;19912;-58
2022/01/29 13:19:19;;;;;;;;;;;11.30;99.90;;;;;;5076841;28;19959;-58
2022/01/29 13:21:45;;;;;;;;;;;11.30;99.90;;;;;;5076195;28;19904;-59
2022/01/29 13:24:26;;;;;;;;;;;11.30;99.90;;;;;;5092381;28;19912;-58
2022/01/29 13:27:11;;;;;;;;;;;11.30;99.90;;;;;;5088194;28;20298;-58
2022/01/29 13:29:45;;;;;;;;;;;11.30;99.90;;;;;;5082827;28;19943;-58
2022/01/29 13:32:13;;;;;;;;;;;11.40;99.90;;;;;;5093710;28;19904;-58
2022/01/29 13:34:40;;;;;;;;;;;11.30;99.90;;;;;;5092337;28;19908;-58
2022/01/29 13:37:24;;;;;;;;;;;11.30;99.90;;;;;;5087295;28;19914;-58
2022/01/29 13:39:49;;;;;;;;;;;11.30;99.90;;;;;;5083339;28;19947;-58
2022/01/29 13:42:17;;;;;;;;;;;11.30;99.90;;;;;;5091431;28;20420;-58
2022/01/29 13:45:02;;;;;;;;;;;11.30;99.90;;;;;;5093616;28;19916;-58
2022/01/29 13:47:27;;;;;;;;;;;11.30;99.90;;;;;;5081586;28;19909;-58
2022/01/29 13:49:53;;;;;;;;;;;11.30;99.90;;;;;;5074234;28;19910;-58
2022/01/29 13:52:22;;;;;;;;;;;11.30;99.90;;;;;;5087620;28;19916;-58
2022/01/29 13:54:48;;;;;;;;;;;11.40;99.90;;;;;;5094070;28;19911;-58
2022/01/29 13:57:14;;;;;;;;;;;11.40;99.90;;;;;;5093672;28;19904;-58
2022/01/29 13:59:41;;;;;;;;;;;11.40;99.90;;;;;;5093209;28;19908;-59
2022/01/29 14:02:07;;;;;;;;;;;11.40;99.90;;;;;;5093020;28;19953;-58
2022/01/29 14:04:36;;;;;;;;;;;11.50;99.90;;;;;;5092711;28;19912;-58
2022/01/29 14:07:10;;;;;;;;;;;11.60;99.90;;;;;;5093443;28;20351;-58
2022/01/29 14:09:38;;;;;;;;;;;11.50;99.90;;;;;;5093541;28;19904;-58
2022/01/29 14:12:05;;;;;;;;;;;11.50;99.90;;;;;;5093854;28;19912;-58
2022/01/29 14:14:32;;;;;;;;;;;11.60;99.90;;;;;;5092578;28;19911;-58
2022/01/29 14:16:59;;;;;;;;;;;11.60;99.90;;;;;;5093717;28;20274;-58
2022/01/29 14:19:27;;;;;;;;;;;11.70;99.90;;;;;;5093349;28;20124;-58
2022/01/29 14:21:52;;;;;;;;;;;11.80;99.90;;;;;;5092632;28;19912;-58
2022/01/29 14:24:18;;;;;;;;;;;11.80;99.90;;;;;;5093316;28;20321;-58
2022/01/29 14:26:44;;;;;;;;;;;11.80;99.90;;;;;;5093159;28;20003;-58
2022/01/29 14:29:10;;;;;;;;;;;11.70;99.90;;;;;;5092709;28;20271;-58
2022/01/29 14:31:35;;;;;;;;;;;11.70;99.90;;;;;;5093151;28;19911;-58
2022/01/29 14:34:02;;;;;;;;;;;11.70;99.90;;;;;;5093032;28;19904;-58
2022/01/29 14:36:29;;;;;;;;;;;11.70;99.90;;;;;;5092115;28;19924;-58
2022/01/29 14:38:54;;;;;;;;;;;11.80;99.90;;;;;;5093626;28;19926;-59
2022/01/29 14:41:20;;;;;;;;;;;11.80;99.90;;;;;;5081345;28;19904;-58
2022/01/29 14:43:47;;;;;;;;;;;11.80;99.90;;;;;;5072054;28;19912;-57